createdAt,value
2018-10-12T00:01:19.322Z,16.43
2018-10-12T00:03:48.264Z,17.80
2018-10-12T00:06:17.194Z,16.97
2018-10-12T00:08:46.209Z,16.50
2018-10-12T00:11:15.295Z,16.87
2018-10-12T00:13:44.570Z,17.70
2018-10-12T00:16:13.554Z,17.80
2018-10-12T00:18:42.539Z,17.50
2018-10-12T00:21:11.549Z,16.53
2018-10-12T00:23:40.572Z,17.37
2018-10-12T00:26:09.544Z,17.43
2018-10-12T00:28:38.551Z,16.80
2018-10-12T00:31:07.572Z,16.13
2018-10-12T00:33:36.529Z,16.67
2018-10-12T00:36:05.601Z,17.37
2018-10-12T00:38:34.926Z,15.90
2018-10-12T00:41:03.952Z,17.30
2018-10-12T00:43:32.863Z,17.17
2018-10-12T00:46:01.912Z,16.03
2018-10-12T00:48:30.901Z,17.23
2018-10-12T00:50:59.891Z,16.87
2018-10-12T00:53:28.976Z,17.87
2018-10-12T00:55:57.918Z,17.13
2018-10-12T00:58:26.990Z,18.20
2018-10-12T01:00:55.963Z,17.13
2018-10-12T01:03:25.061Z,17.57
2018-10-12T01:05:54.060Z,17.70
2018-10-12T01:08:23.158Z,16.73
2018-10-12T01:10:52.203Z,17.57
2018-10-12T01:13:21.266Z,17.87
2018-10-12T01:15:50.249Z,18.43
2018-10-12T01:18:19.477Z,15.90
2018-10-12T01:20:48.786Z,17.13
2018-10-12T01:23:17.857Z,18.07
2018-10-12T01:25:46.919Z,17.60
2018-10-12T01:28:16.011Z,17.10
2018-10-12T01:30:45.094Z,16.90
2018-10-12T01:33:14.247Z,16.77
2018-10-12T01:35:43.273Z,17.90
2018-10-12T01:38:12.335Z,19.53
2018-10-12T01:40:41.377Z,18.97
2018-10-12T01:43:10.366Z,32.97
2018-10-12T01:45:39.477Z,24.57
2018-10-12T01:48:08.434Z,19.20
2018-10-12T01:50:37.450Z,22.23
2018-10-12T01:53:06.768Z,21.00
2018-10-12T01:55:35.761Z,17.77
2018-10-12T01:58:04.742Z,19.33
2018-10-12T02:00:33.776Z,19.40
2018-10-12T02:03:02.696Z,17.53
2018-10-12T02:05:31.663Z,17.10
2018-10-12T02:08:00.684Z,17.57
2018-10-12T02:10:29.697Z,25.47
2018-10-12T02:12:58.718Z,24.67
2018-10-12T02:15:27.642Z,22.93
2018-10-12T02:17:57.585Z,22.10
2018-10-12T02:20:28.197Z,20.30
2018-10-12T02:22:57.229Z,29.80
2018-10-12T02:25:26.163Z,20.90
2018-10-12T02:27:55.163Z,18.77
2018-10-12T02:30:24.317Z,19.33
2018-10-12T02:32:53.372Z,19.00
2018-10-12T02:35:22.430Z,20.40
2018-10-12T02:37:51.386Z,21.17
2018-10-12T02:40:20.408Z,18.07
2018-10-12T02:42:49.493Z,19.20
2018-10-12T02:45:18.581Z,17.70
2018-10-12T02:47:47.731Z,22.27
2018-10-12T02:50:16.707Z,20.10
2018-10-12T02:52:45.731Z,20.50
2018-10-12T02:55:14.734Z,21.70
2018-10-12T02:57:43.686Z,20.90
2018-10-12T03:00:12.651Z,20.50
2018-10-12T03:02:41.569Z,20.23
2018-10-12T03:05:10.551Z,19.27
2018-10-12T03:07:39.556Z,22.50
2018-10-12T03:10:08.549Z,20.37
2018-10-12T03:12:37.505Z,20.97
2018-10-12T03:15:06.596Z,23.03
2018-10-12T03:17:35.561Z,23.13
2018-10-12T03:20:04.666Z,19.93
2018-10-12T03:22:34.002Z,20.70
2018-10-12T03:25:03.008Z,20.97
2018-10-12T03:27:36.595Z,19.23
2018-10-12T03:30:05.631Z,21.50
2018-10-12T03:32:34.663Z,22.67
2018-10-12T03:35:03.751Z,22.03
2018-10-12T03:37:32.777Z,21.27
2018-10-12T03:40:01.732Z,23.37
2018-10-12T03:42:30.756Z,21.23
2018-10-12T03:44:59.889Z,20.27
2018-10-12T03:47:28.874Z,21.83
2018-10-12T03:49:57.878Z,20.33
2018-10-12T03:52:36.498Z,20.43
2018-10-12T03:55:05.671Z,18.97
2018-10-12T03:57:34.696Z,22.20
2018-10-12T04:00:03.890Z,23.17
2018-10-12T04:02:32.933Z,23.67
2018-10-12T04:05:02.042Z,23.80
2018-10-12T04:07:31.016Z,23.27
2018-10-12T04:10:00.094Z,24.57
2018-10-12T04:12:29.063Z,23.40
2018-10-12T04:14:58.095Z,22.60
2018-10-12T04:17:27.146Z,20.90
2018-10-12T04:19:56.182Z,25.30
2018-10-12T04:22:26.202Z,19.60
2018-10-12T04:24:55.351Z,20.97
2018-10-12T04:27:24.343Z,24.43
2018-10-12T04:29:53.338Z,22.73
2018-10-12T04:32:22.379Z,25.97
2018-10-12T04:34:51.343Z,25.40
2018-10-12T04:37:20.356Z,22.97
2018-10-12T04:39:57.675Z,21.17
2018-10-12T04:42:26.775Z,23.73
2018-10-12T04:44:55.808Z,26.87
2018-10-12T04:47:27.321Z,24.47
2018-10-12T04:49:56.757Z,20.93
2018-10-12T04:52:27.434Z,25.73
2018-10-12T04:54:56.448Z,24.07
2018-10-12T04:57:25.471Z,22.87
2018-10-12T04:59:54.616Z,23.93
2018-10-12T05:02:23.577Z,26.57
2018-10-12T05:04:52.662Z,25.63
2018-10-12T05:07:21.711Z,24.07
2018-10-12T05:09:50.817Z,24.97
2018-10-12T05:12:19.808Z,22.70
2018-10-12T05:14:48.854Z,23.30
2018-10-12T05:17:17.951Z,25.27
2018-10-12T05:19:46.899Z,23.63
2018-10-12T05:22:15.976Z,28.53
2018-10-12T05:24:44.986Z,29.80
2018-10-12T05:27:14.006Z,24.93
2018-10-12T05:29:43.082Z,28.47
2018-10-12T05:32:12.100Z,26.50
2018-10-12T05:34:41.151Z,29.63
2018-10-12T05:37:10.074Z,28.30
2018-10-12T05:39:39.107Z,28.97
2018-10-12T05:42:08.398Z,30.37
2018-10-12T05:44:37.457Z,28.87
2018-10-12T05:47:06.520Z,28.80
2018-10-12T05:49:46.562Z,29.23
2018-10-12T05:52:15.648Z,26.40
2018-10-12T05:54:44.703Z,25.33
2018-10-12T05:57:13.870Z,31.23
2018-10-12T05:59:42.913Z,29.13
2018-10-12T06:02:11.965Z,27.60
2018-10-12T06:04:41.042Z,28.47
2018-10-12T06:07:09.997Z,26.50
2018-10-12T06:09:39.056Z,26.07
2018-10-12T06:12:08.297Z,28.70
2018-10-12T06:14:37.256Z,28.50
2018-10-12T06:17:06.331Z,24.50
2018-10-12T06:19:35.291Z,30.30
2018-10-12T06:22:04.380Z,27.07
2018-10-12T06:24:33.382Z,26.80
2018-10-12T06:27:02.363Z,28.80
2018-10-12T06:29:31.456Z,28.40
2018-10-12T06:32:00.950Z,30.93
2018-10-12T06:34:30.064Z,26.17
2018-10-12T06:36:59.066Z,28.13
2018-10-12T06:39:28.053Z,27.67
2018-10-12T06:41:57.048Z,30.10
2018-10-12T06:44:26.072Z,29.60
2018-10-12T06:46:55.037Z,28.17
2018-10-12T06:49:24.020Z,26.27
2018-10-12T06:51:53.045Z,27.67
2018-10-12T06:54:22.063Z,28.83
2018-10-12T06:56:51.123Z,28.17
2018-10-12T06:59:20.088Z,27.20
2018-10-12T07:01:49.083Z,27.33
2018-10-12T07:04:18.193Z,26.67
2018-10-12T07:06:47.198Z,26.80
2018-10-12T07:09:16.226Z,25.90
2018-10-12T07:11:45.282Z,26.37
2018-10-12T07:14:14.342Z,26.70
2018-10-12T07:16:43.386Z,25.70
2018-10-12T07:19:12.370Z,23.50
2018-10-12T07:21:41.330Z,26.77
2018-10-12T07:24:10.320Z,26.93
2018-10-12T07:26:39.325Z,25.10
2018-10-12T07:29:08.397Z,25.23
2018-10-12T07:31:37.466Z,24.67
2018-10-12T07:34:06.531Z,21.03
2018-10-12T07:36:35.530Z,23.47
2018-10-12T07:39:05.954Z,23.60
2018-10-12T07:41:34.930Z,22.20
2018-10-12T07:44:13.799Z,21.63
2018-10-12T07:46:42.815Z,21.37
2018-10-12T07:49:11.831Z,20.33
2018-10-12T07:51:40.781Z,19.97
2018-10-12T07:54:09.851Z,20.70
2018-10-12T07:56:38.884Z,19.63
2018-10-12T07:59:07.892Z,17.83
2018-10-12T08:01:36.902Z,19.60
2018-10-12T08:04:05.925Z,18.43
2018-10-12T08:06:34.982Z,19.23
2018-10-12T08:09:05.182Z,17.93
2018-10-12T08:11:34.234Z,19.23
2018-10-12T08:14:03.278Z,17.93
2018-10-12T08:16:32.323Z,16.93
2018-10-12T08:19:01.454Z,18.53
2018-10-12T08:21:31.240Z,18.50
2018-10-12T08:24:00.260Z,18.30
2018-10-12T08:26:29.287Z,17.40
2018-10-12T08:28:58.345Z,17.23
2018-10-12T08:31:27.461Z,17.20
2018-10-12T08:33:56.450Z,17.80
2018-10-12T08:36:25.539Z,18.97
2018-10-12T08:38:54.437Z,17.50
2018-10-12T08:41:23.417Z,18.63
2018-10-12T08:43:52.442Z,16.73
2018-10-12T08:46:21.402Z,18.73
2018-10-12T08:48:50.404Z,17.90
2018-10-12T08:51:19.366Z,18.10
2018-10-12T08:53:48.316Z,20.87
2018-10-12T08:56:17.392Z,19.93
2018-10-12T08:58:46.415Z,18.70
2018-10-12T09:01:15.386Z,16.73
2018-10-12T09:03:44.360Z,17.93
2018-10-12T09:06:13.429Z,18.97
2018-10-12T09:08:42.504Z,19.37
2018-10-12T09:11:11.532Z,17.43
2018-10-12T09:13:40.541Z,17.67
2018-10-12T09:16:09.580Z,18.47
2018-10-12T09:18:38.590Z,17.07
2018-10-12T09:21:07.982Z,17.73
2018-10-12T09:23:37.300Z,17.83
2018-10-12T09:26:06.397Z,20.60
2018-10-12T09:28:35.357Z,17.47
2018-10-12T09:31:04.406Z,18.23
2018-10-12T09:33:33.474Z,19.57
2018-10-12T09:36:02.588Z,18.60
2018-10-12T09:38:31.602Z,18.97
2018-10-12T09:41:00.714Z,19.27
2018-10-12T09:43:29.752Z,19.70
2018-10-12T09:45:58.774Z,17.83
2018-10-12T09:48:27.849Z,17.43
2018-10-12T09:50:56.971Z,18.53
2018-10-12T09:53:26.000Z,18.27
2018-10-12T09:55:54.992Z,18.37
2018-10-12T09:58:24.000Z,17.03
2018-10-12T10:00:58.256Z,17.47
2018-10-12T10:03:32.534Z,18.57
2018-10-12T10:06:01.557Z,17.10
2018-10-12T10:08:30.811Z,16.97
2018-10-12T10:10:59.762Z,17.90
2018-10-12T10:13:28.746Z,16.73
2018-10-12T10:15:57.837Z,16.13
2018-10-12T10:18:26.820Z,16.27
2018-10-12T10:20:55.886Z,16.10
2018-10-12T10:23:24.949Z,16.57
2018-10-12T10:25:53.947Z,14.40
2018-10-12T10:28:22.871Z,14.13
2018-10-12T10:30:51.867Z,14.90
2018-10-12T10:33:20.866Z,13.27
2018-10-12T10:35:49.905Z,15.30
2018-10-12T10:38:18.941Z,14.43
2018-10-12T10:40:47.902Z,12.90
2018-10-12T10:43:16.911Z,12.43
2018-10-12T10:45:45.888Z,12.83
2018-10-12T10:48:14.881Z,12.10
2018-10-12T10:50:48.897Z,11.23
2018-10-12T10:53:17.953Z,11.20
2018-10-12T10:55:46.924Z,11.77
2018-10-12T10:58:15.978Z,10.50
2018-10-12T11:00:45.007Z,11.80
2018-10-12T11:03:13.943Z,11.87
2018-10-12T11:05:42.961Z,10.63
2018-10-12T11:08:11.941Z,10.53
2018-10-12T11:10:40.956Z,10.40
2018-10-12T11:13:09.992Z,10.63
2018-10-12T11:15:38.977Z,11.40
2018-10-12T11:18:08.015Z,11.53
2018-10-12T11:20:37.086Z,11.77
2018-10-12T11:23:06.206Z,11.43
2018-10-12T11:25:35.148Z,10.63
2018-10-12T11:28:04.191Z,11.77
2018-10-12T11:30:33.157Z,11.00
2018-10-12T11:33:02.341Z,11.53
2018-10-12T11:35:31.332Z,11.27
2018-10-12T11:38:00.394Z,11.30
2018-10-12T11:40:29.521Z,11.60
2018-10-12T11:43:09.501Z,11.80
2018-10-12T11:45:38.567Z,11.93
2018-10-12T11:48:07.466Z,11.47
2018-10-12T11:50:36.559Z,11.83
2018-10-12T11:53:05.501Z,12.07
2018-10-12T11:55:34.502Z,11.37
2018-10-12T11:58:03.460Z,12.80
2018-10-12T12:00:32.409Z,11.73
2018-10-12T12:03:01.393Z,12.53
2018-10-12T12:05:30.395Z,11.87
2018-10-12T12:07:59.316Z,11.93
2018-10-12T12:10:28.317Z,11.40
2018-10-12T12:12:57.330Z,11.67
2018-10-12T12:15:26.295Z,11.10
2018-10-12T12:17:55.426Z,11.23
2018-10-12T12:20:24.457Z,11.33
2018-10-12T12:22:53.562Z,11.60
2018-10-12T12:25:22.565Z,11.63
2018-10-12T12:27:51.899Z,11.07
2018-10-12T12:30:21.292Z,11.57
2018-10-12T12:32:50.447Z,11.47
2018-10-12T12:35:19.840Z,11.57
2018-10-12T12:37:48.647Z,11.13
2018-10-12T12:40:17.612Z,11.80
2018-10-12T12:42:46.651Z,11.50
2018-10-12T12:45:15.660Z,11.53
2018-10-12T12:47:44.728Z,11.23
2018-10-12T12:50:13.742Z,11.00
2018-10-12T12:52:42.686Z,11.17
2018-10-12T12:55:11.709Z,11.80
2018-10-12T12:57:40.827Z,12.27
2018-10-12T13:00:09.902Z,11.20
2018-10-12T13:02:39.075Z,11.03
2018-10-12T13:05:08.215Z,11.97
2018-10-12T13:07:37.289Z,11.33
2018-10-12T13:10:06.387Z,10.60
2018-10-12T13:12:35.488Z,10.13
2018-10-12T13:15:04.672Z,10.67
2018-10-12T13:17:33.657Z,11.03
2018-10-12T13:20:02.729Z,11.47
2018-10-12T13:22:31.642Z,10.63
2018-10-12T13:25:00.747Z,10.50
2018-10-12T13:27:29.762Z,10.03
2018-10-12T13:29:58.899Z,10.33
2018-10-12T13:32:27.913Z,9.23
2018-10-12T13:34:56.915Z,9.83
2018-10-12T13:37:25.976Z,10.20
2018-10-12T13:39:55.047Z,10.00
2018-10-12T13:42:23.978Z,10.50
2018-10-12T13:44:53.078Z,10.20
2018-10-12T13:47:22.257Z,10.50
2018-10-12T13:49:51.250Z,10.43
2018-10-12T13:52:20.345Z,10.30
2018-10-12T13:54:49.344Z,9.80
2018-10-12T13:57:18.422Z,10.63
2018-10-12T13:59:47.472Z,10.13
2018-10-12T14:02:16.436Z,10.07
2018-10-12T14:04:45.431Z,10.03
2018-10-12T14:07:14.522Z,10.70
2018-10-12T14:09:43.436Z,10.17
2018-10-12T14:12:12.365Z,10.00
2018-10-12T14:14:41.361Z,10.60
2018-10-12T14:17:10.460Z,9.53
2018-10-12T14:19:39.566Z,9.30
2018-10-12T14:22:08.603Z,9.80
2018-10-12T14:24:37.714Z,9.43
2018-10-12T14:27:06.750Z,9.60
2018-10-12T14:29:35.818Z,10.77
2018-10-12T14:32:04.976Z,9.70
2018-10-12T14:34:34.061Z,10.03
2018-10-12T14:37:03.077Z,9.30
2018-10-12T14:39:32.203Z,8.67
2018-10-12T14:42:01.324Z,8.47
2018-10-12T14:44:30.492Z,9.30
2018-10-12T14:46:59.534Z,9.73
2018-10-12T14:49:28.517Z,8.40
2018-10-12T14:51:57.619Z,8.13
2018-10-12T14:54:26.675Z,9.33
2018-10-12T14:56:55.581Z,10.00
2018-10-12T14:59:24.655Z,7.97
2018-10-12T15:01:53.791Z,9.60
2018-10-12T15:04:22.878Z,9.73
2018-10-12T15:06:51.915Z,8.83
2018-10-12T15:09:21.003Z,8.67
2018-10-12T15:11:50.013Z,10.27
2018-10-12T15:14:23.513Z,9.13
2018-10-12T15:16:52.662Z,9.87
2018-10-12T15:19:21.715Z,10.63
2018-10-12T15:21:50.738Z,9.00
2018-10-12T15:24:19.818Z,9.60
2018-10-12T15:26:49.854Z,8.83
2018-10-12T15:29:18.905Z,9.33
2018-10-12T15:31:47.969Z,8.33
2018-10-12T15:34:17.095Z,8.80
2018-10-12T15:36:46.198Z,10.20
2018-10-12T15:39:15.391Z,9.80
2018-10-12T15:41:44.486Z,10.40
2018-10-12T15:44:13.631Z,9.67
2018-10-12T15:46:42.751Z,9.57
2018-10-12T15:49:11.813Z,10.77
2018-10-12T15:51:40.937Z,10.07
2018-10-12T15:54:09.993Z,10.77
2018-10-12T15:56:39.069Z,8.63
2018-10-12T15:59:08.075Z,10.30
2018-10-12T16:01:37.028Z,10.47
2018-10-12T16:04:06.262Z,9.57
2018-10-12T16:06:35.524Z,9.53
2018-10-12T16:09:05.405Z,11.40
2018-10-12T16:11:34.553Z,11.73
2018-10-12T16:14:03.717Z,10.50
2018-10-12T16:16:32.883Z,11.60
2018-10-12T16:19:02.044Z,13.77
2018-10-12T16:21:31.117Z,14.10
2018-10-12T16:24:08.803Z,13.13
2018-10-12T16:26:38.045Z,12.17
2018-10-12T16:29:07.245Z,14.43
2018-10-12T16:31:36.476Z,16.77
2018-10-12T16:34:05.645Z,14.60
2018-10-12T16:36:34.812Z,11.70
2018-10-12T16:39:05.084Z,14.07
2018-10-12T16:41:34.204Z,11.77
2018-10-12T16:44:03.267Z,11.93
2018-10-12T16:46:32.424Z,12.33
2018-10-12T16:49:01.502Z,12.80
2018-10-12T16:51:30.732Z,15.70
2018-10-12T16:53:59.805Z,14.43
2018-10-12T16:56:29.153Z,13.37
2018-10-12T16:58:58.445Z,12.97
2018-10-12T17:01:27.543Z,12.73
2018-10-12T17:03:56.489Z,13.63
2018-10-12T17:06:25.691Z,13.40
2018-10-12T17:08:54.742Z,11.67
2018-10-12T17:11:23.833Z,12.53
2018-10-12T17:13:52.909Z,12.03
2018-10-12T17:16:22.022Z,12.17
2018-10-12T17:18:51.181Z,12.80
2018-10-12T17:21:20.300Z,14.07
2018-10-12T17:23:49.418Z,10.97
2018-10-12T17:26:18.499Z,12.07
2018-10-12T17:28:47.667Z,11.67
2018-10-12T17:31:16.758Z,13.63
2018-10-12T17:33:45.833Z,14.47
2018-10-12T17:36:14.948Z,16.80
2018-10-12T17:38:44.002Z,22.07
2018-10-12T17:41:19.028Z,19.47
2018-10-12T17:43:48.346Z,16.00
2018-10-12T17:46:17.891Z,17.70
2018-10-12T17:48:46.914Z,14.57
2018-10-12T17:51:15.966Z,13.80
2018-10-12T17:53:45.326Z,13.97
2018-10-12T17:56:14.441Z,13.63
2018-10-12T17:58:43.443Z,12.43
2018-10-12T18:01:12.496Z,13.43
2018-10-12T18:03:41.491Z,13.20
2018-10-12T18:06:10.562Z,12.53
2018-10-12T18:08:39.593Z,12.90
2018-10-12T18:11:08.815Z,12.27
2018-10-12T18:13:37.919Z,13.23
2018-10-12T18:16:07.297Z,12.90
2018-10-12T18:18:36.337Z,13.87
2018-10-12T18:21:05.432Z,11.27
2018-10-12T18:23:35.155Z,13.17
2018-10-12T18:26:04.311Z,13.50
2018-10-12T18:28:33.314Z,13.40
2018-10-12T18:31:02.420Z,13.87
2018-10-12T18:33:31.466Z,12.40
2018-10-12T18:36:00.534Z,13.40
2018-10-12T18:38:29.569Z,12.83
2018-10-12T18:40:58.820Z,13.83
2018-10-12T18:43:27.885Z,13.13
2018-10-12T18:45:56.968Z,13.13
2018-10-12T18:48:25.961Z,13.30
2018-10-12T18:50:54.995Z,13.00
2018-10-12T18:53:24.109Z,14.03
2018-10-12T18:55:53.170Z,13.23
2018-10-12T18:58:22.165Z,13.63
2018-10-12T19:00:51.343Z,14.87
2018-10-12T19:03:20.395Z,14.67
2018-10-12T19:05:49.421Z,14.43
2018-10-12T19:08:18.593Z,15.00
2018-10-12T19:10:47.562Z,16.00
2018-10-12T19:13:16.693Z,14.80
2018-10-12T19:15:45.655Z,15.20
2018-10-12T19:18:14.702Z,15.63
2018-10-12T19:20:43.781Z,14.27
2018-10-12T19:23:13.002Z,13.50
2018-10-12T19:25:42.051Z,15.03
2018-10-12T19:28:11.221Z,14.17
2018-10-12T19:30:40.368Z,13.57
2018-10-12T19:33:09.319Z,16.23
2018-10-12T19:35:38.395Z,15.63
2018-10-12T19:38:07.995Z,13.90
2018-10-12T19:40:36.930Z,14.70
2018-10-12T19:43:06.065Z,13.97
2018-10-12T19:45:35.189Z,16.10
2018-10-12T19:48:06.017Z,15.20
2018-10-12T19:50:37.905Z,15.13
2018-10-12T19:53:07.660Z,16.67
2018-10-12T19:55:36.701Z,16.60
2018-10-12T19:58:05.671Z,16.53
2018-10-12T20:00:34.723Z,17.07
2018-10-12T20:03:03.823Z,15.67
2018-10-12T20:05:32.888Z,15.07
2018-10-12T20:08:02.046Z,15.33
2018-10-12T20:10:31.135Z,15.83
2018-10-12T20:13:00.203Z,16.07
2018-10-12T20:15:29.224Z,16.60
2018-10-12T20:18:00.206Z,16.93
2018-10-12T20:20:29.315Z,17.13
2018-10-12T20:22:58.413Z,17.80
2018-10-12T20:25:27.523Z,17.63
2018-10-12T20:27:56.580Z,17.00
2018-10-12T20:30:25.570Z,16.43
2018-10-12T20:32:54.776Z,18.33
2018-10-12T20:35:23.904Z,16.77
2018-10-12T20:37:53.004Z,17.87
2018-10-12T20:40:22.043Z,16.37
2018-10-12T20:42:51.201Z,17.50
2018-10-12T20:45:20.283Z,16.90
2018-10-12T20:47:49.310Z,15.73
2018-10-12T20:50:18.476Z,18.83
2018-10-12T20:52:47.637Z,16.33
2018-10-12T20:55:16.810Z,16.93
2018-10-12T20:57:47.003Z,18.80
2018-10-12T21:00:22.494Z,16.70
2018-10-12T21:02:51.502Z,17.63
2018-10-12T21:05:20.703Z,17.27
2018-10-12T21:07:49.692Z,16.57
2018-10-12T21:10:18.774Z,17.80
2018-10-12T21:12:48.049Z,15.67
2018-10-12T21:15:17.109Z,17.50
2018-10-12T21:17:46.214Z,16.60
2018-10-12T21:20:15.269Z,17.27
2018-10-12T21:22:44.352Z,16.87
2018-10-12T21:25:13.485Z,18.50
2018-10-12T21:27:42.494Z,16.43
2018-10-12T21:30:11.982Z,19.27
2018-10-12T21:32:41.139Z,17.33
2018-10-12T21:35:10.246Z,16.87
2018-10-12T21:37:39.494Z,18.03
2018-10-12T21:40:08.475Z,18.67
2018-10-12T21:42:37.434Z,18.53
2018-10-12T21:45:06.539Z,17.20
2018-10-12T21:47:35.603Z,18.60
2018-10-12T21:50:04.655Z,17.37
2018-10-12T21:52:33.651Z,20.30
2018-10-12T21:55:02.780Z,20.03
2018-10-12T21:57:31.768Z,18.33
2018-10-12T22:00:00.818Z,20.17
2018-10-12T22:02:29.846Z,17.80
2018-10-12T22:04:58.931Z,16.37
2018-10-12T22:07:28.080Z,20.20
2018-10-12T22:09:56.950Z,19.67
2018-10-12T22:12:26.081Z,19.57
2018-10-12T22:14:55.056Z,19.13
2018-10-12T22:17:24.035Z,20.07
2018-10-12T22:19:53.005Z,19.37
2018-10-12T22:22:21.991Z,18.60
2018-10-12T22:24:51.354Z,19.77
2018-10-12T22:27:20.429Z,20.13
2018-10-12T22:29:49.459Z,18.40
2018-10-12T22:32:18.424Z,19.83
2018-10-12T22:34:47.273Z,19.87
2018-10-12T22:37:16.278Z,18.43
2018-10-12T22:39:45.187Z,18.93
2018-10-12T22:42:15.133Z,18.93
2018-10-12T22:44:44.441Z,17.90
2018-10-12T22:47:13.475Z,17.97
2018-10-12T22:49:42.395Z,18.40
2018-10-12T22:52:11.425Z,18.57
2018-10-12T22:54:40.411Z,19.33
2018-10-12T22:57:09.381Z,17.87
2018-10-12T22:59:38.385Z,19.30
2018-10-12T23:02:07.398Z,18.27
2018-10-12T23:04:36.478Z,20.10
2018-10-12T23:07:05.586Z,18.07
2018-10-12T23:09:34.601Z,18.27
2018-10-12T23:12:03.670Z,21.53
2018-10-12T23:14:32.593Z,19.77
2018-10-12T23:17:01.559Z,20.70
2018-10-12T23:19:30.582Z,23.93
2018-10-12T23:21:59.618Z,19.07
2018-10-12T23:24:28.635Z,20.57
2018-10-12T23:26:57.621Z,20.40
2018-10-12T23:29:26.701Z,19.73
2018-10-12T23:31:55.769Z,20.90
2018-10-12T23:34:24.765Z,20.23
2018-10-12T23:36:53.786Z,20.57
2018-10-12T23:39:22.734Z,20.13
2018-10-12T23:41:51.720Z,20.73
2018-10-12T23:44:20.682Z,17.57
2018-10-12T23:46:49.892Z,20.10
2018-10-12T23:49:18.820Z,19.23
2018-10-12T23:51:47.885Z,20.13
2018-10-12T23:54:16.858Z,22.43
2018-10-12T23:56:45.872Z,20.93
2018-10-12T23:59:14.833Z,24.13
